This is the latest recevied weather packets stored in our database for station/object OH2TI. If no packets are shown the sender has not sent any weather packets the latest 10 day(s).
| Time | Temp. | Humidity | Pressure | Rain* | Wind** | Luminosity | Snow |
|---|---|---|---|---|---|---|---|
| 1777805400 | 15° C | 56% | 1004.5 hPa | - | - | - | - |
| 1777804870 | 15° C | 58% | 1004.5 hPa | - | - | - | - |
| 1777804520 | 15° C | 57% | 1004.4 hPa | - | - | - | - |
| 1777803823 | 15.56° C | 55% | 1004.4 hPa | - | - | - | - |
| 1777803225 | 15° C | 56% | 1004.4 hPa | - | - | - | - |
| 1777802690 | 15° C | 55% | 1004.5 hPa | - | - | - | - |
| 1777802205 | 15° C | 56% | 1004.5 hPa | - | - | - | - |
| 1777801840 | 15° C | 57% | 1004.5 hPa | - | - | - | - |
| 1777800960 | 13.89° C | 60% | 1004.5 hPa | - | - | - | - |
| 1777800263 | 13.89° C | 61% | 1004.6 hPa | - | - | - | - |
| 1777799583 | 13.33° C | 62% | 1004.7 hPa | - | - | - | - |
| 1777799005 | 13.89° C | 61% | 1004.6 hPa | - | - | - | - |
| 1777798680 | 13.33° C | 62% | 1004.5 hPa | - | - | - | - |
| 1777797963 | 13.33° C | 61% | 1004.5 hPa | - | - | - | - |
| 1777797463 | 13.33° C | 62% | 1004.5 hPa | - | - | - | - |
| 1777796630 | 12.78° C | 61% | 1004.4 hPa | - | - | - | - |
| 1777795855 | 12.78° C | 61% | 1004.4 hPa | - | - | - | - |
| 1777795183 | 12.78° C | 60% | 1004.2 hPa | - | - | - | - |
| 1777794835 | 12.78° C | 61% | 1004.1 hPa | - | - | - | - |
| 1777794483 | 12.22° C | 64% | 1004 hPa | - | - | - | - |
| 1777794052 | 11.67° C | 67% | 1003.9 hPa | - | - | - | - |
| 1777793223 | 10.56° C | 69% | 1003.7 hPa | - | - | - | - |
| 1777792483 | 10.56° C | 71% | 1003.8 hPa | - | - | - | - |
| 1777791967 | 10° C | 72% | 1003.7 hPa | - | - | - | - |
| 1777791155 | 10.56° C | 72% | 1003.7 hPa | - | - | - | - |
* Rain since midnight (hover to see other rain measurements)
** Current wind speed in m/s (hover to see current wind gust speed)